sensor_id;sensor_type;location;lat;lon;timestamp;temperature;humidity
20866;DHT22;10593;48.398;10.698;2023-09-19T08:17:15;21.70;57.70
20866;DHT22;10593;48.398;10.698;2023-09-19T09:19:05;21.90;55.40
20866;DHT22;10593;48.398;10.698;2023-09-19T09:55:08;22.20;54.00
20866;DHT22;10593;48.398;10.698;2023-09-19T09:57:34;22.20;54.00
20866;DHT22;10593;48.398;10.698;2023-09-19T10:00:06;22.20;54.10
20866;DHT22;10593;48.398;10.698;2023-09-19T10:02:44;22.20;54.20
20866;DHT22;10593;48.398;10.698;2023-09-19T10:05:20;22.20;53.60
20866;DHT22;10593;48.398;10.698;2023-09-19T10:07:51;22.30;53.70
20866;DHT22;10593;48.398;10.698;2023-09-19T10:10:36;22.30;53.10
20866;DHT22;10593;48.398;10.698;2023-09-19T10:13:09;22.30;53.10
20866;DHT22;10593;48.398;10.698;2023-09-19T10:15:46;22.40;53.10
20866;DHT22;10593;48.398;10.698;2023-09-19T10:18:24;22.40;52.90
20866;DHT22;10593;48.398;10.698;2023-09-19T10:20:53;22.50;53.10
20866;DHT22;10593;48.398;10.698;2023-09-19T10:23:22;22.50;53.20
20866;DHT22;10593;48.398;10.698;2023-09-19T10:25:53;22.50;53.30
20866;DHT22;10593;48.398;10.698;2023-09-19T10:28:20;22.50;53.00
20866;DHT22;10593;48.398;10.698;2023-09-19T10:30:51;22.50;52.50
20866;DHT22;10593;48.398;10.698;2023-09-19T10:33:19;22.60;52.60
20866;DHT22;10593;48.398;10.698;2023-09-19T10:35:49;22.60;53.20
20866;DHT22;10593;48.398;10.698;2023-09-19T10:38:20;22.60;53.60
20866;DHT22;10593;48.398;10.698;2023-09-19T10:40:54;22.60;53.90
20866;DHT22;10593;48.398;10.698;2023-09-19T10:43:28;22.60;54.00
20866;DHT22;10593;48.398;10.698;2023-09-19T10:46:01;22.60;53.90
20866;DHT22;10593;48.398;10.698;2023-09-19T10:48:31;22.60;53.90
20866;DHT22;10593;48.398;10.698;2023-09-19T10:51:08;22.60;53.90
20866;DHT22;10593;48.398;10.698;2023-09-19T12:10:51;22.70;52.60
20866;DHT22;10593;48.398;10.698;2023-09-19T12:13:21;22.80;51.80
20866;DHT22;10593;48.398;10.698;2023-09-19T12:15:51;22.90;51.40
20866;DHT22;10593;48.398;10.698;2023-09-19T12:18:33;22.90;51.10
20866;DHT22;10593;48.398;10.698;2023-09-19T12:21:02;22.90;50.60
20866;DHT22;10593;48.398;10.698;2023-09-19T12:23:33;23.00;50.90
20866;DHT22;10593;48.398;10.698;2023-09-19T12:34:02;23.10;49.90
20866;DHT22;10593;48.398;10.698;2023-09-19T12:36:31;23.20;49.60
20866;DHT22;10593;48.398;10.698;2023-09-19T12:39:22;23.20;49.70
20866;DHT22;10593;48.398;10.698;2023-09-19T12:41:55;23.20;49.00
20866;DHT22;10593;48.398;10.698;2023-09-19T12:44:25;23.20;49.10
20866;DHT22;10593;48.398;10.698;2023-09-19T12:46:51;23.30;48.80
20866;DHT22;10593;48.398;10.698;2023-09-19T12:49:26;23.30;48.50
20866;DHT22;10593;48.398;10.698;2023-09-19T12:51:59;23.30;48.20
20866;DHT22;10593;48.398;10.698;2023-09-19T13:10:03;23.50;48.30
20866;DHT22;10593;48.398;10.698;2023-09-19T13:12:37;23.50;48.30
20866;DHT22;10593;48.398;10.698;2023-09-19T13:20:25;23.60;48.30
20866;DHT22;10593;48.398;10.698;2023-09-19T13:22:59;23.60;47.80
20866;DHT22;10593;48.398;10.698;2023-09-19T13:25:38;23.60;47.80
20866;DHT22;10593;48.398;10.698;2023-09-19T13:28:14;23.60;47.50
20866;DHT22;10593;48.398;10.698;2023-09-19T14:56:15;23.70;48.40
20866;DHT22;10593;48.398;10.698;2023-09-19T14:58:44;23.70;48.40
20866;DHT22;10593;48.398;10.698;2023-09-19T15:01:11;23.70;48.40
20866;DHT22;10593;48.398;10.698;2023-09-19T15:32:08;23.90;48.20
20866;DHT22;10593;48.398;10.698;2023-09-19T15:39:46;24.10;47.70
20866;DHT22;10593;48.398;10.698;2023-09-19T15:42:12;24.10;47.50
20866;DHT22;10593;48.398;10.698;2023-09-19T15:44:38;24.10;47.30
20866;DHT22;10593;48.398;10.698;2023-09-19T15:47:04;24.10;47.40
20866;DHT22;10593;48.398;10.698;2023-09-19T15:49:30;24.10;47.00
20866;DHT22;10593;48.398;10.698;2023-09-19T15:51:56;24.20;47.10
20866;DHT22;10593;48.398;10.698;2023-09-19T15:54:21;24.20;47.00
20866;DHT22;10593;48.398;10.698;2023-09-19T15:56:48;24.20;46.90
20866;DHT22;10593;48.398;10.698;2023-09-19T15:59:16;24.20;46.70
20866;DHT22;10593;48.398;10.698;2023-09-19T16:01:43;24.20;46.70
20866;DHT22;10593;48.398;10.698;2023-09-19T16:04:10;24.20;46.70
20866;DHT22;10593;48.398;10.698;2023-09-19T16:06:40;24.10;46.50
20866;DHT22;10593;48.398;10.698;2023-09-19T16:09:06;24.20;46.40
20866;DHT22;10593;48.398;10.698;2023-09-19T16:11:34;24.20;46.40
20866;DHT22;10593;48.398;10.698;2023-09-19T16:14:03;24.20;46.40
20866;DHT22;10593;48.398;10.698;2023-09-19T16:16:30;24.20;46.50
20866;DHT22;10593;48.398;10.698;2023-09-19T16:37:06;24.00;46.30
20866;DHT22;10593;48.398;10.698;2023-09-19T16:39:32;24.00;46.30
20866;DHT22;10593;48.398;10.698;2023-09-19T16:41:59;24.00;46.40
20866;DHT22;10593;48.398;10.698;2023-09-19T16:44:25;24.00;46.60
20866;DHT22;10593;48.398;10.698;2023-09-19T16:46:50;23.90;46.50
20866;DHT22;10593;48.398;10.698;2023-09-19T16:49:16;23.90;46.60
20866;DHT22;10593;48.398;10.698;2023-09-19T16:51:42;23.90;46.80
20866;DHT22;10593;48.398;10.698;2023-09-19T16:54:09;23.90;46.90
20866;DHT22;10593;48.398;10.698;2023-09-19T16:56:34;23.90;47.00
20866;DHT22;10593;48.398;10.698;2023-09-19T16:59:02;23.90;47.10
20866;DHT22;10593;48.398;10.698;2023-09-19T17:01:29;23.80;47.20
20866;DHT22;10593;48.398;10.698;2023-09-19T17:03:59;23.80;47.40
20866;DHT22;10593;48.398;10.698;2023-09-19T17:06:26;23.80;47.90
20866;DHT22;10593;48.398;10.698;2023-09-19T17:08:51;23.80;48.10
20866;DHT22;10593;48.398;10.698;2023-09-19T17:11:18;23.80;48.30
20866;DHT22;10593;48.398;10.698;2023-09-19T17:13:46;23.70;48.50
20866;DHT22;10593;48.398;10.698;2023-09-19T17:16:16;23.70;48.60
20866;DHT22;10593;48.398;10.698;2023-09-19T17:18:54;23.70;48.50
20866;DHT22;10593;48.398;10.698;2023-09-19T17:21:21;23.60;48.80
20866;DHT22;10593;48.398;10.698;2023-09-19T17:23:49;23.60;48.80
20866;DHT22;10593;48.398;10.698;2023-09-19T17:26:15;23.60;49.00
20866;DHT22;10593;48.398;10.698;2023-09-19T17:28:46;23.60;49.00
20866;DHT22;10593;48.398;10.698;2023-09-19T17:31:21;23.50;49.00
20866;DHT22;10593;48.398;10.698;2023-09-19T17:33:50;23.50;49.40
20866;DHT22;10593;48.398;10.698;2023-09-19T17:36:19;23.40;49.30
20866;DHT22;10593;48.398;10.698;2023-09-19T17:38:48;23.40;49.70
20866;DHT22;10593;48.398;10.698;2023-09-19T17:41:15;23.40;49.90
20866;DHT22;10593;48.398;10.698;2023-09-19T17:43:45;23.30;50.00
20866;DHT22;10593;48.398;10.698;2023-09-19T17:46:16;23.30;49.90
20866;DHT22;10593;48.398;10.698;2023-09-19T17:48:50;23.20;50.00
20866;DHT22;10593;48.398;10.698;2023-09-19T17:51:18;23.20;50.40
20866;DHT22;10593;48.398;10.698;2023-09-19T17:53:46;23.20;50.30
20866;DHT22;10593;48.398;10.698;2023-09-19T17:56:15;23.10;50.30
20866;DHT22;10593;48.398;10.698;2023-09-19T17:58:44;23.10;50.30
20866;DHT22;10593;48.398;10.698;2023-09-19T18:01:18;23.00;50.20
20866;DHT22;10593;48.398;10.698;2023-09-19T18:03:49;23.00;50.30
20866;DHT22;10593;48.398;10.698;2023-09-19T18:06:22;22.90;50.40
20866;DHT22;10593;48.398;10.698;2023-09-19T18:08:50;22.80;50.50
20866;DHT22;10593;48.398;10.698;2023-09-19T18:11:18;22.80;50.70
20866;DHT22;10593;48.398;10.698;2023-09-19T18:13:46;22.80;50.90
20866;DHT22;10593;48.398;10.698;2023-09-19T18:16:16;22.80;51.00
20866;DHT22;10593;48.398;10.698;2023-09-19T18:18:42;22.70;51.10
20866;DHT22;10593;48.398;10.698;2023-09-19T18:21:17;22.60;51.20
20866;DHT22;10593;48.398;10.698;2023-09-19T18:23:56;22.60;51.10
20866;DHT22;10593;48.398;10.698;2023-09-19T18:26:23;22.60;51.30
20866;DHT22;10593;48.398;10.698;2023-09-19T18:28:52;22.50;51.20
20866;DHT22;10593;48.398;10.698;2023-09-19T18:31:18;22.50;51.30
20866;DHT22;10593;48.398;10.698;2023-09-19T18:33:44;22.50;51.20
20866;DHT22;10593;48.398;10.698;2023-09-19T18:36:13;22.40;50.90
20866;DHT22;10593;48.398;10.698;2023-09-19T18:38:43;22.40;50.70
20866;DHT22;10593;48.398;10.698;2023-09-19T18:41:14;22.40;50.70
20866;DHT22;10593;48.398;10.698;2023-09-19T18:43:40;22.30;50.70
20866;DHT22;10593;48.398;10.698;2023-09-19T18:46:07;22.30;50.70
20866;DHT22;10593;48.398;10.698;2023-09-19T18:48:40;22.20;50.90
20866;DHT22;10593;48.398;10.698;2023-09-19T18:51:11;22.20;51.10
20866;DHT22;10593;48.398;10.698;2023-09-19T18:53:44;22.20;51.20
20866;DHT22;10593;48.398;10.698;2023-09-19T18:56:12;22.10;51.20
20866;DHT22;10593;48.398;10.698;2023-09-19T18:58:42;22.00;51.10
20866;DHT22;10593;48.398;10.698;2023-09-19T19:01:12;22.10;51.20
20866;DHT22;10593;48.398;10.698;2023-09-19T19:03:41;22.00;51.10
20866;DHT22;10593;48.398;10.698;2023-09-19T19:06:13;21.90;51.10
20866;DHT22;10593;48.398;10.698;2023-09-19T19:08:43;21.90;51.10
20866;DHT22;10593;48.398;10.698;2023-09-19T19:11:11;21.90;51.00
20866;DHT22;10593;48.398;10.698;2023-09-19T19:13:41;21.80;50.90
20866;DHT22;10593;48.398;10.698;2023-09-19T19:16:09;21.80;51.10
20866;DHT22;10593;48.398;10.698;2023-09-19T19:18:38;21.80;51.40
20866;DHT22;10593;48.398;10.698;2023-09-19T19:21:05;21.80;51.50
20866;DHT22;10593;48.398;10.698;2023-09-19T19:23:33;21.80;51.60
20866;DHT22;10593;48.398;10.698;2023-09-19T19:26:01;21.70;51.50
20866;DHT22;10593;48.398;10.698;2023-09-19T19:28:33;21.70;51.40
20866;DHT22;10593;48.398;10.698;2023-09-19T19:31:05;21.70;51.50
20866;DHT22;10593;48.398;10.698;2023-09-19T19:33:34;21.60;51.50
20866;DHT22;10593;48.398;10.698;2023-09-19T19:36:08;21.60;51.50
20866;DHT22;10593;48.398;10.698;2023-09-19T19:38:36;21.50;51.50
20866;DHT22;10593;48.398;10.698;2023-09-19T19:41:03;21.50;51.50
20866;DHT22;10593;48.398;10.698;2023-09-19T19:43:30;21.50;51.50
20866;DHT22;10593;48.398;10.698;2023-09-19T19:45:57;21.50;51.50
20866;DHT22;10593;48.398;10.698;2023-09-19T19:48:25;21.40;51.50
20866;DHT22;10593;48.398;10.698;2023-09-19T19:50:51;21.40;51.60
20866;DHT22;10593;48.398;10.698;2023-09-19T19:53:20;21.40;51.70
20866;DHT22;10593;48.398;10.698;2023-09-19T19:55:51;21.40;52.40
20866;DHT22;10593;48.398;10.698;2023-09-19T19:58:19;21.40;51.80
20866;DHT22;10593;48.398;10.698;2023-09-19T20:00:54;21.30;51.70
20866;DHT22;10593;48.398;10.698;2023-09-19T20:03:24;21.30;51.80
20866;DHT22;10593;48.398;10.698;2023-09-19T20:05:50;21.30;51.70
20866;DHT22;10593;48.398;10.698;2023-09-19T20:08:17;21.30;51.60
20866;DHT22;10593;48.398;10.698;2023-09-19T20:10:43;21.30;51.60
20866;DHT22;10593;48.398;10.698;2023-09-19T20:13:10;21.20;51.50
20866;DHT22;10593;48.398;10.698;2023-09-19T20:15:38;21.20;51.50
20866;DHT22;10593;48.398;10.698;2023-09-19T20:18:05;21.20;51.60
20866;DHT22;10593;48.398;10.698;2023-09-19T20:20:38;21.10;51.50
20866;DHT22;10593;48.398;10.698;2023-09-19T20:23:04;21.10;51.50
20866;DHT22;10593;48.398;10.698;2023-09-19T20:25:36;21.10;51.50
20866;DHT22;10593;48.398;10.698;2023-09-19T20:28:03;21.00;51.50
20866;DHT22;10593;48.398;10.698;2023-09-19T20:30:30;21.00;51.50
20866;DHT22;10593;48.398;10.698;2023-09-19T20:32:58;21.00;51.40
20866;DHT22;10593;48.398;10.698;2023-09-19T20:35:27;21.00;51.60
20866;DHT22;10593;48.398;10.698;2023-09-19T20:37:53;20.90;51.60
20866;DHT22;10593;48.398;10.698;2023-09-19T20:40:26;20.90;51.70
20866;DHT22;10593;48.398;10.698;2023-09-19T20:42:53;20.90;51.90
20866;DHT22;10593;48.398;10.698;2023-09-19T20:45:19;20.90;51.90
20866;DHT22;10593;48.398;10.698;2023-09-19T20:47:45;20.80;51.80
20866;DHT22;10593;48.398;10.698;2023-09-19T20:50:13;20.80;51.70
20866;DHT22;10593;48.398;10.698;2023-09-19T20:52:40;20.80;51.50
20866;DHT22;10593;48.398;10.698;2023-09-19T20:55:06;20.80;51.40
20866;DHT22;10593;48.398;10.698;2023-09-19T20:57:33;20.70;51.30
20866;DHT22;10593;48.398;10.698;2023-09-19T21:00:01;20.70;51.30
20866;DHT22;10593;48.398;10.698;2023-09-19T21:02:29;20.70;51.50
20866;DHT22;10593;48.398;10.698;2023-09-19T21:04:55;20.60;51.50
20866;DHT22;10593;48.398;10.698;2023-09-19T21:07:21;20.60;51.60
20866;DHT22;10593;48.398;10.698;2023-09-19T21:09:47;20.60;51.70
20866;DHT22;10593;48.398;10.698;2023-09-19T21:12:13;20.60;51.90
20866;DHT22;10593;48.398;10.698;2023-09-19T21:14:39;20.50;52.00
20866;DHT22;10593;48.398;10.698;2023-09-19T21:17:06;20.50;52.10
20866;DHT22;10593;48.398;10.698;2023-09-19T21:19:32;20.50;52.10
20866;DHT22;10593;48.398;10.698;2023-09-19T21:21:59;20.50;52.10
20866;DHT22;10593;48.398;10.698;2023-09-19T21:24:25;20.50;52.10
20866;DHT22;10593;48.398;10.698;2023-09-19T21:26:59;20.50;52.20
20866;DHT22;10593;48.398;10.698;2023-09-19T21:29:30;20.40;51.80
20866;DHT22;10593;48.398;10.698;2023-09-19T21:31:57;20.40;51.80
20866;DHT22;10593;48.398;10.698;2023-09-19T21:34:23;20.40;52.00
20866;DHT22;10593;48.398;10.698;2023-09-19T21:36:49;20.40;52.00
20866;DHT22;10593;48.398;10.698;2023-09-19T21:39:17;20.40;52.10
20866;DHT22;10593;48.398;10.698;2023-09-19T21:41:44;20.30;52.10
20866;DHT22;10593;48.398;10.698;2023-09-19T21:44:10;20.30;52.10
20866;DHT22;10593;48.398;10.698;2023-09-19T21:46:37;20.30;52.00
20866;DHT22;10593;48.398;10.698;2023-09-19T21:49:03;20.30;51.70
20866;DHT22;10593;48.398;10.698;2023-09-19T21:51:29;20.30;51.60
20866;DHT22;10593;48.398;10.698;2023-09-19T21:53:56;20.20;51.50
20866;DHT22;10593;48.398;10.698;2023-09-19T21:56:29;20.20;51.40
20866;DHT22;10593;48.398;10.698;2023-09-19T21:58:55;20.20;51.30
20866;DHT22;10593;48.398;10.698;2023-09-19T22:01:21;20.10;51.60
20866;DHT22;10593;48.398;10.698;2023-09-19T22:03:51;20.10;51.60
20866;DHT22;10593;48.398;10.698;2023-09-19T22:06:18;20.10;51.80
20866;DHT22;10593;48.398;10.698;2023-09-19T22:08:47;20.10;52.00
20866;DHT22;10593;48.398;10.698;2023-09-19T22:11:16;20.00;52.10
20866;DHT22;10593;48.398;10.698;2023-09-19T22:13:43;20.00;52.40
20866;DHT22;10593;48.398;10.698;2023-09-19T22:16:12;20.00;52.70
20866;DHT22;10593;48.398;10.698;2023-09-19T22:18:43;20.00;52.90
20866;DHT22;10593;48.398;10.698;2023-09-19T22:21:22;20.00;53.00
20866;DHT22;10593;48.398;10.698;2023-09-19T22:23:57;20.00;53.10
20866;DHT22;10593;48.398;10.698;2023-09-19T22:26:25;20.00;52.80
20866;DHT22;10593;48.398;10.698;2023-09-19T22:28:54;20.00;52.20
20866;DHT22;10593;48.398;10.698;2023-09-19T22:31:25;20.00;51.70
20866;DHT22;10593;48.398;10.698;2023-09-19T22:34:01;20.00;51.60
20866;DHT22;10593;48.398;10.698;2023-09-19T22:36:31;19.90;51.30
20866;DHT22;10593;48.398;10.698;2023-09-19T22:38:58;19.90;51.20
20866;DHT22;10593;48.398;10.698;2023-09-19T22:41:29;19.90;51.20
20866;DHT22;10593;48.398;10.698;2023-09-19T22:43:55;19.80;51.10
20866;DHT22;10593;48.398;10.698;2023-09-19T22:46:22;19.80;51.30
20866;DHT22;10593;48.398;10.698;2023-09-19T22:48:53;19.80;51.50
20866;DHT22;10593;48.398;10.698;2023-09-19T22:51:21;19.80;51.60
20866;DHT22;10593;48.398;10.698;2023-09-19T22:53:53;19.70;51.40
20866;DHT22;10593;48.398;10.698;2023-09-19T22:56:24;19.70;51.50
20866;DHT22;10593;48.398;10.698;2023-09-19T22:58:52;19.70;51.50
20866;DHT22;10593;48.398;10.698;2023-09-19T23:01:20;19.70;51.50
20866;DHT22;10593;48.398;10.698;2023-09-19T23:03:49;19.60;51.50
20866;DHT22;10593;48.398;10.698;2023-09-19T23:06:31;19.60;51.70
20866;DHT22;10593;48.398;10.698;2023-09-19T23:09:00;19.60;51.80
20866;DHT22;10593;48.398;10.698;2023-09-19T23:11:27;19.60;51.90
20866;DHT22;10593;48.398;10.698;2023-09-19T23:13:57;19.50;51.90
20866;DHT22;10593;48.398;10.698;2023-09-19T23:16:24;19.50;51.90
20866;DHT22;10593;48.398;10.698;2023-09-19T23:18:59;19.50;52.00
20866;DHT22;10593;48.398;10.698;2023-09-19T23:21:29;19.50;52.10
20866;DHT22;10593;48.398;10.698;2023-09-19T23:23:58;19.50;52.20
20866;DHT22;10593;48.398;10.698;2023-09-19T23:26:24;19.50;52.30
20866;DHT22;10593;48.398;10.698;2023-09-19T23:28:51;19.40;52.40
20866;DHT22;10593;48.398;10.698;2023-09-19T23:31:18;19.40;52.40
20866;DHT22;10593;48.398;10.698;2023-09-19T23:33:45;19.40;52.30
20866;DHT22;10593;48.398;10.698;2023-09-19T23:36:15;19.40;52.40
20866;DHT22;10593;48.398;10.698;2023-09-19T23:38:40;19.40;52.50
20866;DHT22;10593;48.398;10.698;2023-09-19T23:41:07;19.40;52.60
20866;DHT22;10593;48.398;10.698;2023-09-19T23:43:40;19.30;52.70
20866;DHT22;10593;48.398;10.698;2023-09-19T23:46:07;19.30;52.90
20866;DHT22;10593;48.398;10.698;2023-09-19T23:48:33;19.30;53.00
20866;DHT22;10593;48.398;10.698;2023-09-19T23:51:01;19.30;53.00
20866;DHT22;10593;48.398;10.698;2023-09-19T23:53:31;19.30;52.70
20866;DHT22;10593;48.398;10.698;2023-09-19T23:56:01;19.30;52.40
20866;DHT22;10593;48.398;10.698;2023-09-19T23:58:35;19.30;52.30
